Dades meteomassalio
Diari Summary for Diciembre 23, 2017 Units:  Metric    English   Both
« Previous Day
Next Day »
Diari Semanal Mensual Anual Personalitzat
  Maxima: Minima: Mijana:
Temperatura: -17.8 °C -18.1 °C -15.2 °C
Rosada: -17.8 °C -19.5 °C -17.2 °C
Humitat: Humidity % 64 % 78 %
Velocitat del vent: 0 km/h 0 km/h 12.9 km/h
Racha vent: 0 km/h - -
Vent:- - WSW
Pressio: 0 hPa 35106 hPa -
Pluja: 0 mm    
Historical Graphs
 
 
Tabular Data for Diciembre 23, 2017
Time Temperature Dew Point Pressure Wind Wind Speed Wind Gust Humidity Rainfall Rate (Hourly) solar Conditions
-17.8 °C -17.8 °C 0 hPa Calm     Humidity % 0 mm SolarRadiationWatts/m^2 W/m2 Conditions
00:02 -17.2 °C -18.8 °C 35139.9 hPa West 15 km/h 15 km/h 81 % 0 mm 0.0 W/m2 CLR
00:07 -17.2 °C -18.8 °C 35139.9 hPa WNW 11.9 km/h 11.9 km/h 81 % 0 mm 0.0 W/m2 CLR
00:10 -17.2 °C -18.8 °C 35139.9 hPa West 17.9 km/h 17.9 km/h 81 % 0 mm 0.0 W/m2 CLR
00:11 -17.2 °C -18.8 °C 35139.9 hPa West 17.9 km/h 17.9 km/h 81 % 0 mm 0.0 W/m2 CLR
00:19 -17.2 °C -18.8 °C 35139.9 hPa WNW 20.9 km/h 20.9 km/h 81 % 0 mm 0.0 W/m2 CLR
00:20 -17.2 °C -18.8 °C 35139.9 hPa West 20.9 km/h 20.9 km/h 81 % 0 mm 0.0 W/m2 CLR
00:24 -17.2 °C -18.8 °C 35139.9 hPa West 12.9 km/h 12.9 km/h 81 % 0 mm 0.0 W/m2 CLR
00:26 -17.2 °C -18.8 °C 35139.9 hPa West 9 km/h 9 km/h 80 % 0 mm 0.0 W/m2 CLR
00:31 -17.2 °C -18.8 °C 35150.1 hPa West 10.3 km/h 10.3 km/h 81 % 0 mm 0.0 W/m2 CLR
00:33 -17.2 °C -18.8 °C 35150.1 hPa West 12.9 km/h 12.9 km/h 81 % 0 mm 0.0 W/m2 CLR
00:37 -17.2 °C -18.8 °C 35150.1 hPa West 15 km/h 15 km/h 81 % 0 mm 0.0 W/m2 CLR
00:39 -17.2 °C -18.8 °C 35150.1 hPa West 15 km/h 15 km/h 81 % 0 mm 0.0 W/m2 CLR
00:45 -17.2 °C -18.7 °C 35150.1 hPa WNW 20.9 km/h 20.9 km/h 82 % 0 mm 0.0 W/m2 CLR
00:46 -17.2 °C -18.7 °C 35150.1 hPa West 11.9 km/h 11.9 km/h 82 % 0 mm 0.0 W/m2 CLR
00:50 -17.2 °C -18.7 °C 35150.1 hPa West 11.9 km/h 11.9 km/h 82 % 0 mm 0.0 W/m2 CLR
00:55 -17.2 °C -18.8 °C 35150.1 hPa WNW 15 km/h 15 km/h 81 % 0 mm 0.0 W/m2 CLR
00:58 -17.2 °C -18.8 °C 35150.1 hPa WNW 23.3 km/h 23.3 km/h 81 % 0 mm 0.0 W/m2 CLR
01:00 -17.2 °C -18.8 °C 35139.9 hPa West 23.8 km/h 23.8 km/h 81 % 0 mm 0.0 W/m2 CLR
01:04 -17.2 °C -18.8 °C 35150.1 hPa WNW 9 km/h 9 km/h 80 % 0 mm 0.0 W/m2 CLR
01:09 -17.2 °C -18.8 °C 35150.1 hPa West 10.3 km/h 10.3 km/h 81 % 0 mm 0.0 W/m2 CLR
01:10 -17.2 °C -18.8 °C 35139.9 hPa West 9 km/h 9 km/h 81 % 0 mm 0.0 W/m2 CLR
01:15 -17.4 °C -19 °C 35139.9 hPa West 11.9 km/h 11.9 km/h 82 % 0 mm 0.0 W/m2 CLR
01:16 -17.4 °C -19 °C 35139.9 hPa West 11.9 km/h 11.9 km/h 82 % 0 mm 0.0 W/m2 CLR
01:18 -17.4 °C -18.9 °C 35139.9 hPa WNW 11.9 km/h 11.9 km/h 83 % 0 mm 0.0 W/m2 CLR
01:21 -17.4 °C -18.9 °C 35139.9 hPa West 15.6 km/h 15.6 km/h 83 % 0 mm 0.0 W/m2 CLR
01:26 -17.4 °C -19 °C 35139.9 hPa West 18.2 km/h 18.2 km/h 82 % 0 mm 0.0 W/m2 CLR
01:28 -17.4 °C -19 °C 35129.8 hPa West 17.9 km/h 17.9 km/h 82 % 0 mm 0.0 W/m2 CLR
01:33 -17.8 °C -19.4 °C 35129.8 hPa Calm     81 % 0 mm 0.0 W/m2 CLR
01:38 -17.8 °C -19.4 °C 35129.8 hPa West 15 km/h 15 km/h 81 % 0 mm 0.0 W/m2 CLR
01:43 -17.8 °C -19.5 °C 35129.8 hPa WNW 15 km/h 15 km/h 80 % 0 mm 0.0 W/m2 CLR
01:44 -17.8 °C -19.5 °C 35129.8 hPa WNW 15 km/h 15 km/h 80 % 0 mm 0.0 W/m2 CLR
01:45 -17.8 °C -19.5 °C 35129.8 hPa WNW 15 km/h   80 % 0 mm 0.0 W/m2 CLR
01:50 -17.8 °C -19.4 °C 35129.8 hPa WNW 17.9 km/h 17.9 km/h 81 % 0 mm 0.0 W/m2 CLR
01:51 -17.8 °C -19.4 °C 35129.8 hPa WNW 29.8 km/h 29.8 km/h 81 % 0 mm 0.0 W/m2 CLR
01:56 -17.4 °C -19.1 °C 35116.2 hPa WNW 17.9 km/h 17.9 km/h 81 % 0 mm 0.0 W/m2 CLR
02:02 -17.4 °C -19.2 °C 35116.2 hPa West 26.9 km/h 26.9 km/h 80 % 0 mm 0.0 W/m2 CLR
02:04 -17.4 °C -19.3 °C 35116.2 hPa WSW 6 km/h 6 km/h 79 % 0 mm 0.0 W/m2 CLR
02:11 -17.4 °C -19.2 °C 35116.2 hPa WSW 6 km/h 6 km/h 80 % 0 mm 0.0 W/m2 CLR
02:16 -17.8 °C -19.5 °C 35116.2 hPa Calm     80 % 0 mm 0.0 W/m2 CLR
02:17 -17.8 °C -19.5 °C 35116.2 hPa Calm     80 % 0 mm 0.0 W/m2 CLR
02:19 -17.8 °C -19.5 °C 35116.2 hPa Calm     80 % 0 mm 0.0 W/m2 CLR
02:24 -17.8 °C -19.4 °C 35116.2 hPa Calm     81 % 0 mm 0.0 W/m2 CLR
02:29 -17.4 °C -19.1 °C 35116.2 hPa Calm     81 % 0 mm 0.0 W/m2 CLR
02:30 -17.4 °C -19.1 °C 35116.2 hPa Calm     81 % 0 mm 0.0 W/m2 CLR
02:36 -17.4 °C -19 °C 35116.2 hPa West 10.3 km/h 10.3 km/h 82 % 0 mm 0.0 W/m2 CLR
02:41 -17.4 °C -19.1 °C 35116.2 hPa West 12.9 km/h 12.9 km/h 81 % 0 mm 0.0 W/m2 CLR
02:43 -17.4 °C -19.1 °C 35116.2 hPa West 11.9 km/h 11.9 km/h 81 % 0 mm 0.0 W/m2 CLR
02:48 -17.4 °C -19.1 °C 35116.2 hPa WNW 15.6 km/h 15.6 km/h 81 % 0 mm 0.0 W/m2 CLR
02:53 -17.4 °C -19.2 °C 35116.2 hPa West 9 km/h 9 km/h 80 % 0 mm 0.0 W/m2 CLR
02:54 -17.4 °C -19.2 °C 35116.2 hPa Calm     80 % 0 mm 0.0 W/m2 CLR
02:55 -17.4 °C -19.2 °C 35116.2 hPa Calm     80 % 0 mm 0.0 W/m2 CLR
03:06 -17.2 °C -18.8 °C 35116.2 hPa Calm     81 % 0 mm 0.0 W/m2 CLR
03:07 -17.2 °C -18.8 °C 35116.2 hPa West 2.6 km/h 2.6 km/h 81 % 0 mm 0.0 W/m2 CLR
03:08 -17.2 °C -18.8 °C 35116.2 hPa West 9 km/h 9 km/h 81 % 0 mm 0.0 W/m2 CLR
03:12 -17.2 °C -18.8 °C 35116.2 hPa West 15 km/h 15 km/h 81 % 0 mm 0.0 W/m2 CLR
03:17 -17.2 °C -18.8 °C 35116.2 hPa WNW 17.9 km/h 17.9 km/h 81 % 0 mm 0.0 W/m2 CLR
03:19 -17.2 °C -18.8 °C 35116.2 hPa WNW 26.9 km/h 26.9 km/h 81 % 0 mm 0.0 W/m2 CLR
03:24 -16.8 °C -18.4 °C 35116.2 hPa West 23.8 km/h 23.8 km/h 81 % 0 mm 0.0 W/m2 CLR
03:29 -16.8 °C -18.6 °C 35116.2 hPa West 6 km/h 6 km/h 80 % 0 mm 0.0 W/m2 CLR
03:31 -16.8 °C -18.6 °C 35116.2 hPa WNW 17.9 km/h 17.9 km/h 80 % 0 mm 0.0 W/m2 CLR
03:32 -16.8 °C -18.6 °C 35116.2 hPa WNW 9 km/h 9 km/h 80 % 0 mm 0.0 W/m2 CLR
03:36 -16.8 °C -18.6 °C 35116.2 hPa WNW 15.6 km/h 15.6 km/h 80 % 0 mm 0.0 W/m2 CLR
03:41 -16.8 °C -18.7 °C 35116.2 hPa WNW 20.9 km/h 20.9 km/h 79 % 0 mm 0.0 W/m2 CLR
03:45 -16.6 °C -18.4 °C 35116.2 hPa WNW 20.8 km/h 20.8 km/h 79 % 0 mm 0.0 W/m2 CLR
03:47 -16.6 °C -18.4 °C 35116.2 hPa WNW 26.9 km/h 26.9 km/h 79 % 0 mm 0.0 W/m2 CLR
03:52 -16.6 °C -18.4 °C 35116.2 hPa West 17.9 km/h 17.9 km/h 78 % 0 mm 0.0 W/m2 CLR
03:53 -16.2 °C -18.2 °C 35116.2 hPa WNW 20.9 km/h 20.9 km/h 78 % 0 mm 0.0 W/m2 CLR
03:58 -16.2 °C -18.2 °C 35129.8 hPa Calm     78 % 0 mm 0.0 W/m2 CLR
04:00 -16.2 °C -18.2 °C 35129.8 hPa Calm     78 % 0 mm 0.0 W/m2 CLR
04:01 -16.2 °C -18.2 °C 35129.8 hPa WNW 7.7 km/h 7.7 km/h 78 % 0 mm 0.0 W/m2 CLR
04:06 -16.2 °C -18.2 °C 35129.8 hPa WNW 6 km/h 11.6 km/h 78 % 0 mm 0.0 W/m2 CLR
04:09 -16.2 °C -18.2 °C 35129.8 hPa Calm     78 % 0 mm 0.0 W/m2 CLR
04:13 -16.2 °C -18.2 °C 35129.8 hPa WNW 26.9 km/h 26.9 km/h 78 % 0 mm 0.0 W/m2 CLR
04:18 -15.9 °C -17.9 °C 35116.2 hPa WNW 20.9 km/h 20.9 km/h 78 % 0 mm 0.0 W/m2 CLR
04:19 -15.9 °C -17.9 °C 35116.2 hPa WNW 23.8 km/h 23.8 km/h 78 % 0 mm 0.0 W/m2 CLR
04:24 -15.9 °C -17.7 °C 35116.2 hPa WNW 23.8 km/h 23.8 km/h 79 % 0 mm 0.0 W/m2 CLR
04:26 -15.9 °C -17.7 °C 35116.2 hPa WNW 23.8 km/h 23.8 km/h 79 % 0 mm 0.0 W/m2 CLR
04:31 -15.9 °C -17.7 °C 35129.8 hPa WNW 20.9 km/h 20.9 km/h 79 % 0 mm 0.0 W/m2 CLR
04:32 -15.9 °C -17.9 °C 35129.8 hPa WNW 25.9 km/h 25.9 km/h 78 % 0 mm 0.0 W/m2 CLR
04:33 -15.9 °C -17.7 °C 35129.8 hPa WNW 26.9 km/h 26.9 km/h 79 % 0 mm 0.0 W/m2 CLR
04:38 -16.2 °C -18.2 °C 35129.8 hPa WNW 23.8 km/h 23.8 km/h 78 % 0 mm 0.0 W/m2 CLR
04:39 -16.2 °C -18.2 °C 35129.8 hPa NW 26.9 km/h 26.9 km/h 78 % 0 mm 0.0 W/m2 CLR
04:44 -16.2 °C -18.1 °C 35116.2 hPa WNW 20.9 km/h 20.9 km/h 79 % 0 mm 0.0 W/m2 CLR
04:45 -16.2 °C -18.1 °C 35116.2 hPa NW 23.8 km/h 23.8 km/h 79 % 0 mm 0.0 W/m2 CLR
04:51 -16.2 °C -18.1 °C 35116.2 hPa WNW 17.9 km/h 17.9 km/h 79 % 0 mm 0.0 W/m2 CLR
04:56 -16.6 °C -18.4 °C 35116.2 hPa WNW 28.5 km/h 28.5 km/h 78 % 0 mm 0.0 W/m2 CLR
04:59 -16.6 °C -18.4 °C 35116.2 hPa WNW 17.9 km/h 17.9 km/h 79 % 0 mm 0.0 W/m2 CLR
05:02 -16.2 °C -18.1 °C 35116.2 hPa WNW 29.8 km/h 29.8 km/h 79 % 0 mm 0.0 W/m2 CLR
05:06 -16.2 °C -18.1 °C 35116.2 hPa WNW 23.8 km/h 23.8 km/h 79 % 0 mm 0.0 W/m2 CLR
05:11 -15.9 °C -17.7 °C 35116.2 hPa WNW 26.9 km/h 26.9 km/h 79 % 0 mm 0.0 W/m2 CLR
05:12 -15.9 °C -17.7 °C 35116.2 hPa WNW 29.8 km/h 29.8 km/h 79 % 0 mm 0.0 W/m2 CLR
05:16 -15.9 °C -17.7 °C 35116.2 hPa WNW 23.8 km/h 23.8 km/h 79 % 0 mm 0.0 W/m2 CLR
05:17 -15.9 °C -17.7 °C 35106 hPa WNW 23.8 km/h 23.8 km/h 79 % 0 mm 0.0 W/m2 CLR
05:23 -15.6 °C -17.4 °C 35106 hPa NW 29.8 km/h 29.8 km/h 79 % 0 mm 0.0 W/m2 CLR
05:25 -15.6 °C -17.4 °C 35106 hPa WNW 31.1 km/h 31.1 km/h 79 % 0 mm 0.0 W/m2 CLR
05:28 -15.6 °C -17.4 °C 35106 hPa WNW 29.8 km/h 29.8 km/h 79 % 0 mm 0.0 W/m2 CLR
05:33 -15.6 °C -17.4 °C 35106 hPa WNW 23.3 km/h 23.3 km/h 79 % 0 mm 0.0 W/m2 CLR
05:35 -15.6 °C -17.4 °C 35116.2 hPa WNW 26.9 km/h 26.9 km/h 79 % 0 mm 0.0 W/m2 CLR
05:40 -15.3 °C -17.2 °C 35106 hPa WNW 26.9 km/h 26.9 km/h 79 % 0 mm 0.0 W/m2 CLR
05:41 -15.3 °C -17.2 °C 35106 hPa West 26.9 km/h 26.9 km/h 79 % 0 mm 0.0 W/m2 CLR
05:46 -15 °C -16.8 °C 35106 hPa WNW 23.8 km/h 23.8 km/h 80 % 0 mm 0.0 W/m2 CLR
05:47 -15 °C -16.8 °C 35106 hPa WNW 23.8 km/h 23.8 km/h 80 % 0 mm 0.0 W/m2 CLR
05:52 -15 °C -16.8 °C 35116.2 hPa WNW 23.8 km/h 23.8 km/h 80 % 0 mm 0.0 W/m2 CLR
05:54 -15 °C -16.8 °C 35106 hPa WNW 26.9 km/h 26.9 km/h 80 % 0 mm 0.0 W/m2 CLR
05:56 -15.3 °C -17.1 °C 35106 hPa WNW 28.5 km/h 28.5 km/h 80 % 0 mm 0.0 W/m2 CLR
06:00 -15.3 °C -17.1 °C 35106 hPa NW 26.9 km/h 26.9 km/h 80 % 0 mm 0.0 W/m2 CLR
06:05 -15.3 °C -17.1 °C 35106 hPa WNW 20.9 km/h 20.9 km/h 80 % 0 mm 0.0 W/m2 CLR
06:08 -15.3 °C -17 °C 35106 hPa WNW 26.9 km/h 26.9 km/h 81 % 0 mm 0.0 W/m2 CLR
06:11 -15.3 °C -17 °C 35106 hPa WNW 29.8 km/h 29.8 km/h 81 % 0 mm 0.0 W/m2 CLR
06:13 -15.3 °C -17 °C 35116.2 hPa WNW 32.8 km/h 32.8 km/h 81 % 0 mm 0.0 W/m2 CLR
06:18 -15.3 °C -17.1 °C 35116.2 hPa West 2.6 km/h 2.6 km/h 80 % 0 mm 0.0 W/m2 CLR
06:19 -15.3 °C -17.1 °C 35116.2 hPa WNW 9 km/h 9 km/h 80 % 0 mm 0.0 W/m2 CLR
06:23 -15.6 °C -17.3 °C 35116.2 hPa NW 12.9 km/h 12.9 km/h 81 % 0 mm 0.0 W/m2 CLR
06:25 -15.6 °C -17.3 °C 35116.2 hPa WNW 20.9 km/h 20.9 km/h 81 % 0 mm 0.0 W/m2 CLR
06:29 -15.6 °C -17.3 °C 35116.2 hPa WNW 15.6 km/h 15.6 km/h 81 % 0 mm 0.0 W/m2 CLR
06:30 -15.6 °C -17.3 °C 35116.2 hPa WNW 15.6 km/h 15.6 km/h 81 % 0 mm 0.0 W/m2 CLR
06:35 -15.6 °C -17.3 °C 35116.2 hPa WNW 15 km/h 15 km/h 81 % 0 mm 0.0 W/m2 CLR
06:37 -15.9 °C -17.6 °C 35116.2 hPa WNW 17.9 km/h 17.9 km/h 81 % 0 mm 0.0 W/m2 CLR
06:42 -15.9 °C -17.6 °C 35116.2 hPa WNW 11.9 km/h 11.9 km/h 81 % 0 mm 0.0 W/m2 CLR
06:44 -15.9 °C -17.6 °C 35116.2 hPa WNW 9 km/h 9 km/h 81 % 0 mm 0.0 W/m2 CLR
06:49 -15.9 °C -17.6 °C 35129.8 hPa Calm     81 % 0 mm 0.0 W/m2 CLR
06:54 -16.2 °C -17.9 °C 35129.8 hPa Calm     81 % 0 mm 0.0 W/m2 CLR
06:55 -16.2 °C -17.9 °C 35129.8 hPa Calm     81 % 0 mm 0.0 W/m2 CLR
06:58 -16.2 °C -17.9 °C 35129.8 hPa WNW 18.2 km/h 18.2 km/h 81 % 0 mm 0.0 W/m2 CLR
07:00 -16.2 °C -17.8 °C 35129.8 hPa West 15 km/h 15 km/h 82 % 0 mm 0.0 W/m2 CLR
07:05 -16.2 °C -17.8 °C 35129.8 hPa WNW 20.9 km/h 20.9 km/h 82 % 0 mm 0.0 W/m2 CLR
07:06 -16.2 °C -17.8 °C 35129.8 hPa WNW 3.1 km/h 3.1 km/h 82 % 0 mm 0.0 W/m2 CLR
07:10 -16.6 °C -18.1 °C 35129.8 hPa Calm     82 % 0 mm 0.0 W/m2 CLR
07:12 -16.6 °C -18.1 °C 35129.8 hPa WNW 7.7 km/h   82 % 0 mm 0.0 W/m2 CLR
07:17 -16.6 °C -18.1 °C 35129.8 hPa WNW 26.9 km/h 26.9 km/h 82 % 0 mm 0.0 W/m2 CLR
07:20 -16.6 °C -18.1 °C 35129.8 hPa West 23.8 km/h 23.8 km/h 82 % 0 mm 0.0 W/m2 CLR
07:25 -16.6 °C -18.2 °C 35129.8 hPa WNW 9 km/h 9 km/h 81 % 0 mm 0.0 W/m2 CLR
07:30 -16.6 °C -18 °C 35129.8 hPa WNW 9 km/h 9 km/h 83 % 0 mm 0.0 W/m2 CLR
07:31 -16.6 °C -18 °C 35129.8 hPa WNW 9 km/h 9 km/h 83 % 0 mm 0.0 W/m2 CLR
07:36 -16.6 °C -18.1 °C 35129.8 hPa WNW 9 km/h 9 km/h 82 % 0 mm 0.0 W/m2 CLR
07:37 -16.6 °C -18.1 °C 35129.8 hPa WNW 9 km/h 9 km/h 82 % 0 mm 0.0 W/m2 CLR
07:42 -16.6 °C -18.1 °C 35139.9 hPa NW 3.1 km/h   82 % 0 mm 0.0 W/m2 CLR
07:43 -16.6 °C -18.1 °C 35139.9 hPa Calm     82 % 0 mm 0.0 W/m2 CLR
07:48 -16.6 °C -18.1 °C 35139.9 hPa Calm     82 % 0 mm 0.0 W/m2 CLR
07:49 -16.6 °C -18.1 °C 35139.9 hPa Calm     82 % 0 mm 0.0 W/m2 CLR
07:54 -16.6 °C -18.2 °C 35139.9 hPa Calm     81 % 0 mm 0.0 W/m2 CLR
07:59 -16.8 °C -18.4 °C 35139.9 hPa Calm     81 % 0 mm 0.0 W/m2 CLR
08:04 -16.8 °C -18.4 °C 35139.9 hPa Calm     82 % 0 mm 0.0 W/m2 CLR
08:06 -16.6 °C -18.2 °C 35139.9 hPa Calm     81 % 0 mm 0.0 W/m2 CLR
08:11 -16.6 °C -18 °C 35139.9 hPa Calm     83 % 0 mm 0.0 W/m2 CLR
08:16 -16.6 °C -18 °C 35139.9 hPa Calm     83 % 0 mm 0.0 W/m2 OVC
08:17 -16.6 °C -18 °C 35139.9 hPa Calm     83 % 0 mm 0.0 W/m2 OVC
08:22 -16.8 °C -18.2 °C 35139.9 hPa Calm     84 % 0 mm 0.0 W/m2 OVC
08:24 -16.8 °C -18.1 °C 35139.9 hPa Calm     85 % 0 mm 5.0 W/m2 OVC
08:28 -16.8 °C -18.1 °C 35139.9 hPa Calm     85 % 0 mm 5.0 W/m2 OVC
08:29 -16.8 °C -18.1 °C 35139.9 hPa Calm     85 % 0 mm 7.0 W/m2 OVC
08:30 -16.8 °C -18.1 °C 35139.9 hPa Calm     85 % 0 mm 7.0 W/m2 BKN
08:34 -17.2 °C -18.3 °C 35139.9 hPa West 12.9 km/h 12.9 km/h 86 % 0 mm 7.0 W/m2 BKN
08:38 -17.2 °C -18.3 °C 35150.1 hPa West 15 km/h 15 km/h 86 % 0 mm 9.0 W/m2 BKN
08:40 -17.2 °C -18.3 °C 35150.1 hPa West 11.9 km/h 11.9 km/h 86 % 0 mm 9.0 W/m2 BKN
08:45 -17.2 °C -18.4 °C 35150.1 hPa West 12.9 km/h 12.9 km/h 85 % 0 mm 12.0 W/m2 BKN
08:46 -17.2 °C -18.4 °C 35150.1 hPa West 12.9 km/h 12.9 km/h 85 % 0 mm 12.0 W/m2 BKN
08:51 -17.2 °C -18.4 °C 35150.1 hPa West 11.9 km/h 11.9 km/h 85 % 0 mm 16.0 W/m2 BKN
08:52 -17.2 °C -18.4 °C 35150.1 hPa West 11.9 km/h 11.9 km/h 85 % 0 mm 16.0 W/m2 BKN
08:56 -17.2 °C -18.3 °C 35150.1 hPa West 9 km/h 9 km/h 86 % 0 mm 18.0 W/m2 BKN
09:01 -17.2 °C -18.3 °C 35150.1 hPa WNW 15 km/h 15 km/h 86 % 0 mm 19.0 W/m2 BKN
09:02 -17.2 °C -18.3 °C 35150.1 hPa WNW 15 km/h 15 km/h 86 % 0 mm 26.0 W/m2 BKN
09:07 -17.2 °C -18.4 °C 35150.1 hPa NW 9 km/h 9 km/h 85 % 0 mm 21.0 W/m2 BKN
09:08 -17.2 °C -18.4 °C 35150.1 hPa WNW 9 km/h 9 km/h 85 % 0 mm 21.0 W/m2 BKN
09:13 -17.2 °C -18.5 °C 35150.1 hPa Calm     84 % 0 mm 23.0 W/m2 BKN
09:15 -17.2 °C -18.6 °C 35163.6 hPa Calm     83 % 0 mm 23.0 W/m2 BKN
09:16 -17.2 °C -18.6 °C 35163.6 hPa Calm     83 % 0 mm 33.0 W/m2 BKN
09:21 -17.2 °C -18.6 °C 35163.6 hPa Calm     83 % 0 mm 77.0 W/m2 FEW
09:22 -17.2 °C -18.6 °C 35163.6 hPa Calm     83 % 0 mm 70.0 W/m2 FEW
09:27 -17.2 °C -18.5 °C 35163.6 hPa Calm     84 % 0 mm 86.0 W/m2 SCT
09:30 -17.2 °C -18.5 °C 35163.6 hPa West 2.6 km/h 2.6 km/h 84 % 0 mm 84.0 W/m2 FEW
09:32 -17.2 °C -18.5 °C 35163.6 hPa West 15.6 km/h 15.6 km/h 84 % 0 mm 97.0 W/m2 CLR
09:37 -16.8 °C -18.2 °C 35163.6 hPa West 9 km/h 9 km/h 84 % 0 mm 121.0 W/m2 CLR
09:38 -16.8 °C -18.2 °C 35163.6 hPa WSW 9 km/h 9 km/h 84 % 0 mm 121.0 W/m2 CLR
09:39 -16.8 °C -18.3 °C 35163.6 hPa West 6 km/h 6 km/h 83 % 0 mm 125.0 W/m2 CLR
09:44 -16.8 °C -18.4 °C 35163.6 hPa West 2.6 km/h   82 % 0 mm 60.0 W/m2 CLR
09:49 -16.8 °C -18.4 °C 35173.8 hPa Calm     81 % 0 mm 83.0 W/m2 CLR
09:50 -16.8 °C -18.4 °C 35173.8 hPa Calm     81 % 0 mm 83.0 W/m2 CLR
09:51 -16.6 °C -18.2 °C 35173.8 hPa Calm     81 % 0 mm 76.0 W/m2 CLR
09:55 -16.6 °C -18.3 °C 35173.8 hPa West 11.9 km/h 11.9 km/h 80 % 0 mm 169.0 W/m2 FEW
09:58 -16.6 °C -18.3 °C 35173.8 hPa West 11.9 km/h 11.9 km/h 80 % 0 mm 162.0 W/m2 FEW
10:04 -15.6 °C -17.3 °C 35173.8 hPa WNW 11.9 km/h 11.9 km/h 80 % 0 mm 116.0 W/m2 CLR
10:09 -15.3 °C -17.3 °C 35173.8 hPa WNW 35.7 km/h 35.7 km/h 78 % 0 mm 156.0 W/m2 CLR
10:13 -15 °C -17.1 °C 35187.3 hPa WNW 26.9 km/h 26.9 km/h 77 % 0 mm 218.0 W/m2 CLR
10:18 -14.4 °C -16.6 °C 35173.8 hPa WNW 29.8 km/h 29.8 km/h 76 % 0 mm 195.0 W/m2 CLR
10:19 -14.1 °C -16.3 °C 35173.8 hPa NW 29.8 km/h 29.8 km/h 76 % 0 mm 100.0 W/m2 CLR
10:20 -13.8 °C -15.9 °C 35187.3 hPa NW 26.9 km/h 26.9 km/h 76 % 0 mm 100.0 W/m2 CLR
10:25 -13.4 °C -15.8 °C 35187.3 hPa WNW 29.8 km/h 29.8 km/h 75 % 0 mm 260.0 W/m2 CLR
10:27 -13.2 °C -15.4 °C 35187.3 hPa NNW 23.8 km/h 23.8 km/h 76 % 0 mm 264.0 W/m2 CLR
10:31 -12.8 °C -15.2 °C 35187.3 hPa WNW 33.6 km/h 33.6 km/h 75 % 0 mm 271.0 W/m2 CLR
10:36 -12.8 °C -15.2 °C 35197.5 hPa NW 35.7 km/h 35.7 km/h 75 % 0 mm 128.0 W/m2 CLR
10:41 -12.8 °C -15.2 °C 35197.5 hPa NW 31.1 km/h 31.1 km/h 75 % 0 mm 123.0 W/m2 CLR
10:42 -12.8 °C -15.2 °C 35187.3 hPa NW 26.9 km/h 26.9 km/h 75 % 0 mm 123.0 W/m2 CLR
10:47 -12.6 °C -14.9 °C 35197.5 hPa NW 26.9 km/h 26.9 km/h 75 % 0 mm 297.0 W/m2 CLR
10:52 -12.6 °C -14.9 °C 35197.5 hPa NW 29.8 km/h 29.8 km/h 74 % 0 mm 299.0 W/m2 CLR
10:55 -12.6 °C -14.9 °C 35197.5 hPa NW 33.6 km/h 33.6 km/h 74 % 0 mm 244.0 W/m2 CLR
11:00 -12.6 °C -14.9 °C 35197.5 hPa NW 28.5 km/h 28.5 km/h 74 % 0 mm 262.0 W/m2 CLR
11:05 -12.6 °C -14.9 °C 35197.5 hPa NW 29.8 km/h 29.8 km/h 74 % 0 mm 323.0 W/m2 CLR
11:10 -12.6 °C -15.1 °C 35197.5 hPa NW 38.8 km/h 38.8 km/h 73 % 0 mm 330.0 W/m2 CLR
11:11 -12.2 °C -14.8 °C 35197.5 hPa WNW 38.8 km/h 38.8 km/h 73 % 0 mm 330.0 W/m2 CLR
11:13 -12.2 °C -14.8 °C 35197.5 hPa NW 38.8 km/h 38.8 km/h 73 % 0 mm 339.0 W/m2 CLR
11:17 -12.2 °C -14.8 °C 35197.5 hPa NW 44.7 km/h 44.7 km/h 73 % 0 mm 343.0 W/m2 CLR
11:22 -12.2 °C -14.8 °C 35197.5 hPa NW 29.8 km/h 29.8 km/h 73 % 0 mm 338.0 W/m2 CLR
11:23 -12.2 °C -14.9 °C 35197.5 hPa WNW 33.6 km/h 33.6 km/h 72 % 0 mm 323.0 W/m2 CLR
11:26 -12.2 °C -14.8 °C 35197.5 hPa NW 29.8 km/h 29.8 km/h 73 % 0 mm 308.0 W/m2 CLR
11:30 -12.2 °C -14.9 °C 35197.5 hPa WNW 33.6 km/h 33.6 km/h 72 % 0 mm 366.0 W/m2 CLR
11:35 -12.2 °C -14.9 °C 35197.5 hPa NW 38.8 km/h 38.8 km/h 72 % 0 mm 339.0 W/m2 CLR
11:41 -12.2 °C -14.9 °C 35197.5 hPa WNW 29.8 km/h 29.8 km/h 72 % 0 mm 383.0 W/m2 CLR
11:46 -11.9 °C -14.6 °C 35197.5 hPa NW 29.8 km/h 29.8 km/h 72 % 0 mm 397.0 W/m2 CLR
11:49 -11.9 °C -14.7 °C 35197.5 hPa NW 28.5 km/h 28.5 km/h 71 % 0 mm 397.0 W/m2 CLR
11:54 -11.9 °C -14.7 °C 35197.5 hPa WNW 29.8 km/h 29.8 km/h 71 % 0 mm 427.0 W/m2 CLR
11:57 -11.9 °C -14.7 °C 35197.5 hPa NNW 28.5 km/h 28.5 km/h 71 % 0 mm 432.0 W/m2 CLR
12:02 -11.6 °C -14.6 °C 35197.5 hPa NW 35.7 km/h 35.7 km/h 70 % 0 mm 397.0 W/m2 CLR
12:04 -11.6 °C -14.6 °C 35197.5 hPa NW 29.8 km/h 29.8 km/h 70 % 0 mm 406.0 W/m2 CLR
12:08 -11.6 °C -14.6 °C 35197.5 hPa NW 38.8 km/h 38.8 km/h 70 % 0 mm 403.0 W/m2 CLR
12:09 -11.6 °C -14.6 °C 35197.5 hPa North 38.8 km/h 38.8 km/h 70 % 0 mm 403.0 W/m2 CLR
12:14 -11.6 °C -14.6 °C 35197.5 hPa NNW 29.8 km/h 29.8 km/h 70 % 0 mm 410.0 W/m2 CLR
12:15 -11.6 °C -14.6 °C 35197.5 hPa NNW 29.8 km/h 29.8 km/h 70 % 0 mm 420.0 W/m2 CLR
12:20 -11.3 °C -14.3 °C 35187.3 hPa NW 41.7 km/h 41.7 km/h 69 % 0 mm 429.0 W/m2 CLR
12:21 -11.3 °C -14.3 °C 35187.3 hPa NW 38.8 km/h 38.8 km/h 69 % 0 mm 425.0 W/m2 CLR
12:26 -11.3 °C -14.5 °C 35187.3 hPa NNW 44.7 km/h 44.7 km/h 68 % 0 mm 457.0 W/m2 CLR
12:28 -11.6 °C -14.8 °C 35187.3 hPa NNW 29.8 km/h 29.8 km/h 68 % 0 mm 443.0 W/m2 CLR
12:32 -11.6 °C -14.8 °C 35187.3 hPa WNW 44.7 km/h 44.7 km/h 68 % 0 mm 84.0 W/m2 CLR
12:36 -11.6 °C -14.7 °C 35187.3 hPa WNW 35.7 km/h 35.7 km/h 69 % 0 mm 56.0 W/m2 CLR
12:37 -11.6 °C -14.6 °C 35187.3 hPa NW 35.7 km/h 35.7 km/h 70 % 0 mm 56.0 W/m2 FEW
12:42 -11.9 °C -14.8 °C 35173.8 hPa WNW 38.8 km/h 38.8 km/h 70 % 0 mm 439.0 W/m2 FEW
12:44 -11.9 °C -14.8 °C 35173.8 hPa WNW 38.8 km/h 38.8 km/h 70 % 0 mm 360.0 W/m2 FEW
12:46 -11.9 °C -14.9 °C 35173.8 hPa NW 32.8 km/h 32.8 km/h 69 % 0 mm 67.0 W/m2 CLR
12:49 -11.9 °C -14.9 °C 35173.8 hPa WNW 29.8 km/h 29.8 km/h 69 % 0 mm 58.0 W/m2 CLR
12:54 -11.9 °C -14.8 °C 35173.8 hPa NNW 29.8 km/h 29.8 km/h 70 % 0 mm 65.0 W/m2 FEW
12:57 -12.2 °C -15 °C 35173.8 hPa NNW 26.9 km/h 26.9 km/h 71 % 0 mm 65.0 W/m2 FEW
13:00 -11.9 °C -14.7 °C 35173.8 hPa NW 26.9 km/h 26.9 km/h 71 % 0 mm 431.0 W/m2 FEW
13:05 -11.9 °C -14.7 °C 35173.8 hPa North 26.9 km/h 26.9 km/h 71 % 0 mm 439.0 W/m2 CLR
13:06 -11.6 °C -14.4 °C 35163.6 hPa NW 23.8 km/h 23.8 km/h 71 % 0 mm 450.0 W/m2 CLR
13:08 -11.6 °C -14.6 °C 35163.6 hPa WNW 20.9 km/h 20.9 km/h 70 % 0 mm 446.0 W/m2 CLR
13:11 -11.6 °C -14.7 °C 35163.6 hPa North 29.8 km/h 29.8 km/h 69 % 0 mm 436.0 W/m2 CLR
13:16 -11.3 °C -14.5 °C 35163.6 hPa NNW 32.8 km/h 32.8 km/h 68 % 0 mm 72.0 W/m2 CLR
13:21 -11.3 °C -14.3 °C 35163.6 hPa NW 28.5 km/h 28.5 km/h 69 % 0 mm 441.0 W/m2 CLR
13:22 -11.3 °C -14.3 °C 35163.6 hPa NW 29.8 km/h 29.8 km/h 69 % 0 mm 438.0 W/m2 CLR
13:23 -11.3 °C -14.5 °C 35163.6 hPa NW 29.8 km/h 29.8 km/h 68 % 0 mm 441.0 W/m2 CLR
13:27 -11.3 °C -14.5 °C 35163.6 hPa NNW 26.9 km/h 26.9 km/h 68 % 0 mm 100.0 W/m2 CLR
13:32 -11 °C -14.2 °C 35163.6 hPa NNW 29.8 km/h 29.8 km/h 68 % 0 mm 461.0 W/m2 CLR
13:34 -11 °C -14.3 °C 35150.1 hPa NW 20.9 km/h 20.9 km/h 67 % 0 mm 452.0 W/m2 CLR
13:39 -11 °C -14.3 °C 35150.1 hPa NNW 29.8 km/h 30.7 km/h 67 % 0 mm 443.0 W/m2 CLR
13:40 -11 °C -14.4 °C 35150.1 hPa NNW 32.8 km/h 32.8 km/h 66 % 0 mm 452.0 W/m2 CLR
13:45 -11 °C -14.4 °C 35150.1 hPa North 29.8 km/h 29.8 km/h 66 % 0 mm 492.0 W/m2 CLR
13:47 -11 °C -14.6 °C 35150.1 hPa North 29.8 km/h 29.8 km/h 65 % 0 mm 459.0 W/m2 CLR
13:51 -10.7 °C -14.3 °C 35139.9 hPa NNW 32.8 km/h 32.8 km/h 65 % 0 mm 408.0 W/m2 CLR
13:52 -10.7 °C -14.3 °C 35139.9 hPa NNW 32.8 km/h 32.8 km/h 65 % 0 mm 408.0 W/m2 CLR
13:57 -10.7 °C -14.3 °C 35139.9 hPa NNW 29.8 km/h 29.8 km/h 65 % 0 mm 306.0 W/m2 CLR
14:02 -10.7 °C -14.3 °C 35139.9 hPa NNW 20.9 km/h 20.9 km/h 65 % 0 mm 434.0 W/m2 CLR
14:07 -10.7 °C -14.4 °C 35139.9 hPa NNW 29.8 km/h 29.8 km/h 64 % 0 mm 427.0 W/m2 CLR
14:08 -10.7 °C -14.4 °C 35139.9 hPa NNW 23.8 km/h 23.8 km/h 64 % 0 mm 425.0 W/m2 CLR
14:11 -10.7 °C -14.4 °C 35139.9 hPa NE 26.9 km/h 26.9 km/h 64 % 0 mm 429.0 W/m2 CLR
14:14 -10.7 °C -14.4 °C 35139.9 hPa NNE 11.9 km/h 11.9 km/h 64 % 0 mm 406.0 W/m2 CLR
14:19 -10.7 °C -14.4 °C 35129.8 hPa NNE 26.9 km/h 26.9 km/h 64 % 0 mm 388.0 W/m2 CLR
14:22 -10.7 °C -14.3 °C 35129.8 hPa NE 20.8 km/h 20.8 km/h 65 % 0 mm 276.0 W/m2 CLR
14:24 -10.7 °C -14.3 °C 35129.8 hPa NE 20.9 km/h 20.9 km/h 65 % 0 mm 381.0 W/m2 CLR
14:29 -11 °C -14.6 °C 35129.8 hPa NNW 29.8 km/h 29.8 km/h 65 % 0 mm 366.0 W/m2 CLR
14:34 -11 °C -14.4 °C 35129.8 hPa NNE 20.9 km/h 20.9 km/h 66 % 0 mm 364.0 W/m2 CLR
14:36 -11 °C -14.4 °C 35129.8 hPa NNE 17.9 km/h 17.9 km/h 66 % 0 mm 352.0 W/m2 CLR
14:39 -11 °C -14.4 °C 35129.8 hPa NE 17.9 km/h 17.9 km/h 66 % 0 mm 345.0 W/m2 CLR
14:43 -11 °C -14.4 °C 35129.8 hPa NE 20.9 km/h 20.9 km/h 66 % 0 mm 338.0 W/m2 CLR
14:48 -11 °C -14.4 °C 35116.2 hPa NE 29.8 km/h 29.8 km/h 66 % 0 mm 327.0 W/m2 CLR
14:50 -11 °C -14.4 °C 35129.8 hPa NNE 23.8 km/h 23.8 km/h 66 % 0 mm 325.0 W/m2 CLR
14:55 -10.7 °C -14.1 °C 35116.2 hPa North 20.8 km/h 20.8 km/h 66 % 0 mm 316.0 W/m2 CLR
15:00 -11 °C -14.4 °C 35116.2 hPa North 20.9 km/h 20.9 km/h 66 % 0 mm 309.0 W/m2 CLR
15:01 -11 °C -14.4 °C 35116.2 hPa NE 20.9 km/h 20.9 km/h 66 % 0 mm 308.0 W/m2 CLR
15:06 -11 °C -14.4 °C 35116.2 hPa NE 25.9 km/h 25.9 km/h 66 % 0 mm 297.0 W/m2 CLR
15:12 -11 °C -14.6 °C 35116.2 hPa NNE 26.9 km/h 26.9 km/h 65 % 0 mm 290.0 W/m2 CLR
15:17 -11 °C -14.6 °C 35116.2 hPa NNE 20.9 km/h 20.9 km/h 65 % 0 mm 278.0 W/m2 CLR
15:19 -11 °C -14.6 °C 35116.2 hPa NNE 20.9 km/h   65 % 0 mm 274.0 W/m2 CLR
15:24 -11 °C -14.6 °C 35116.2 hPa NE 26.9 km/h 26.9 km/h 65 % 0 mm 264.0 W/m2 CLR
15:29 -11 °C -14.6 °C 35116.2 hPa NNE 23.8 km/h   65 % 0 mm 255.0 W/m2 CLR
15:33 -11 °C -14.6 °C 35116.2 hPa NE 23.8 km/h 23.8 km/h 65 % 0 mm 246.0 W/m2 CLR
15:34 -11 °C -14.6 °C 35116.2 hPa NNE 23.8 km/h 23.8 km/h 65 % 0 mm 241.0 W/m2 CLR
15:39 -11 °C -14.6 °C 35129.8 hPa North 15.6 km/h 15.6 km/h 65 % 0 mm 229.0 W/m2 CLR
15:40 -11 °C -14.6 °C 35129.8 hPa NNE 26.9 km/h 26.9 km/h 65 % 0 mm 227.0 W/m2 CLR
15:45 -11 °C -14.6 °C 35116.2 hPa NNE 23.8 km/h 23.8 km/h 65 % 0 mm 211.0 W/m2 CLR
15:47 -11 °C -14.4 °C 35116.2 hPa NNE 26.9 km/h 26.9 km/h 66 % 0 mm 209.0 W/m2 CLR
15:52 -11 °C -14.4 °C 35116.2 hPa NNE 18.2 km/h 18.2 km/h 66 % 0 mm 195.0 W/m2 CLR
15:54 -11 °C -14.4 °C 35129.8 hPa NE 26.9 km/h 26.9 km/h 66 % 0 mm 190.0 W/m2 CLR
15:57 -11.3 °C -14.7 °C 35116.2 hPa NNE 23.8 km/h 23.8 km/h 66 % 0 mm 183.0 W/m2 CLR
15:59 -11.3 °C -14.7 °C 35129.8 hPa NNE 20.9 km/h 20.9 km/h 66 % 0 mm 178.0 W/m2 CLR
16:02 -11.3 °C -14.7 °C 35129.8 hPa NE 20.9 km/h 20.9 km/h 66 % 0 mm 174.0 W/m2 CLR
16:07 -11.6 °C -15 °C 35129.8 hPa NNE 20.9 km/h 20.9 km/h 66 % 0 mm 155.0 W/m2 CLR
16:08 -11.6 °C -15 °C 35129.8 hPa NE 20.9 km/h 20.9 km/h 66 % 0 mm 155.0 W/m2 CLR
16:13 -11.6 °C -15 °C 35129.8 hPa NNE 15.6 km/h 15.6 km/h 66 % 0 mm 142.0 W/m2 CLR
16:18 -11.6 °C -15 °C 35129.8 hPa NNE 15.6 km/h 15.6 km/h 66 % 0 mm 128.0 W/m2 CLR
16:19 -11.6 °C -15 °C 35129.8 hPa NNE 17.9 km/h 17.9 km/h 66 % 0 mm 125.0 W/m2 CLR
16:23 -11.6 °C -15 °C 35129.8 hPa NNE 20.9 km/h 20.9 km/h 66 % 0 mm 114.0 W/m2 CLR
16:24 -11.6 °C -15 °C 35129.8 hPa NNE 20.9 km/h 20.9 km/h 66 % 0 mm 113.0 W/m2 CLR
16:28 -11.9 °C -15.3 °C 35129.8 hPa NNE 20.9 km/h 20.9 km/h 66 % 0 mm 102.0 W/m2 CLR
16:29 -11.9 °C -15.3 °C 35129.8 hPa NNE 17.9 km/h 17.9 km/h 66 % 0 mm 98.0 W/m2 CLR
16:30 -11.9 °C -15.3 °C 35129.8 hPa NNE 17.9 km/h 17.9 km/h 66 % 0 mm 98.0 W/m2 CLR
16:34 -11.9 °C -15.3 °C 35129.8 hPa NNE 3.1 km/h   66 % 0 mm 88.0 W/m2 CLR
16:35 -11.9 °C -15.3 °C 35116.2 hPa Calm     66 % 0 mm 84.0 W/m2 CLR
16:40 -11.9 °C -15.3 °C 35129.8 hPa Calm     66 % 0 mm 72.0 W/m2 FEW
16:41 -11.9 °C -15.4 °C 35129.8 hPa Calm     65 % 0 mm 62.0 W/m2 SCT
16:46 -11.9 °C -15.3 °C 35129.8 hPa Calm     66 % 0 mm 47.0 W/m2 SCT
16:47 -11.9 °C -15.3 °C 35129.8 hPa Calm     66 % 0 mm 47.0 W/m2 SCT
16:48 -12.2 °C -15.6 °C 35129.8 hPa Calm     66 % 0 mm 47.0 W/m2 SCT
16:52 -12.2 °C -15.6 °C 35129.8 hPa Calm     66 % 0 mm 42.0 W/m2 BKN
16:57 -12.6 °C -15.9 °C 35129.8 hPa Calm     66 % 0 mm 33.0 W/m2 BKN
16:59 -12.6 °C -15.9 °C 35116.2 hPa Calm     66 % 0 mm 33.0 W/m2 BKN
17:04 -12.8 °C -16.2 °C 35129.8 hPa Calm     66 % 0 mm 23.0 W/m2 BKN
17:06 -12.8 °C -16.2 °C 35129.8 hPa Calm     66 % 0 mm 19.0 W/m2 BKN
17:07 -12.8 °C -16.2 °C 35129.8 hPa Calm     66 % 0 mm 19.0 W/m2 BKN
17:12 -13.2 °C -16.3 °C 35129.8 hPa Calm     67 % 0 mm 14.0 W/m2 BKN
17:18 -13.2 °C -16.3 °C 35129.8 hPa Calm     67 % 0 mm 12.0 W/m2 BKN
17:23 -13.4 °C -16.6 °C 35129.8 hPa Calm     68 % 0 mm 11.0 W/m2 BKN
17:24 -13.4 °C -16.6 °C 35129.8 hPa Calm     68 % 0 mm 11.0 W/m2 BKN
17:29 -13.4 °C -16.4 °C 35129.8 hPa Calm     69 % 0 mm 7.0 W/m2 BKN
17:30 -13.8 °C -16.7 °C 35129.8 hPa Calm     69 % 0 mm 7.0 W/m2 BKN
17:35 -13.8 °C -16.6 °C 35129.8 hPa Calm     70 % 0 mm 5.0 W/m2 OVC
17:40 -14.1 °C -16.9 °C 35129.8 hPa Calm     70 % 0 mm 0.0 W/m2 OVC
17:46 -14.4 °C -17.1 °C 35129.8 hPa Calm     71 % 0 mm 0.0 W/m2 CLR
17:51 -14.4 °C -17.1 °C 35129.8 hPa Calm     71 % 0 mm 0.0 W/m2 CLR
17:54 -14.7 °C -17.4 °C 35129.8 hPa Calm     71 % 0 mm 0.0 W/m2 CLR
17:57 -14.7 °C -17.4 °C 35139.9 hPa Calm     71 % 0 mm 0.0 W/m2 CLR
17:59 -14.7 °C -17.4 °C 35129.8 hPa Calm     71 % 0 mm 0.0 W/m2 CLR
18:03 -14.7 °C -17.3 °C 35129.8 hPa Calm     72 % 0 mm 0.0 W/m2 CLR
18:08 -14.7 °C -17.3 °C 35129.8 hPa Calm     72 % 0 mm 0.0 W/m2 CLR
18:13 -14.7 °C -17.1 °C 35129.8 hPa Calm     74 % 0 mm 0.0 W/m2 CLR
18:18 -14.7 °C -17.1 °C 35129.8 hPa Calm     74 % 0 mm 0.0 W/m2 CLR
18:19 -14.7 °C -17.1 °C 35139.9 hPa Calm     74 % 0 mm 0.0 W/m2 CLR
18:20 -14.7 °C -17.1 °C 35139.9 hPa Calm     74 % 0 mm 0.0 W/m2 CLR
18:24 -14.7 °C -17.1 °C 35139.9 hPa Calm     74 % 0 mm 0.0 W/m2 CLR
18:27 -14.7 °C -17.1 °C 35139.9 hPa Calm     74 % 0 mm 0.0 W/m2 CLR
18:30 -14.7 °C -17.1 °C 35139.9 hPa Calm     74 % 0 mm 0.0 W/m2 CLR
18:34 -14.7 °C -17 °C 35139.9 hPa Calm     75 % 0 mm 0.0 W/m2 CLR
18:36 -14.7 °C -16.8 °C 35139.9 hPa Calm     76 % 0 mm 0.0 W/m2 CLR
18:41 -15 °C -17.2 °C 35150.1 hPa Calm     76 % 0 mm 0.0 W/m2 CLR
18:46 -15 °C -17.1 °C 35150.1 hPa Calm     77 % 0 mm 0.0 W/m2 CLR
18:47 -15.3 °C -17.3 °C 35150.1 hPa Calm     77 % 0 mm 0.0 W/m2 CLR
18:48 -15.3 °C -17.3 °C 35150.1 hPa Calm     77 % 0 mm 0.0 W/m2 CLR
18:53 -15.3 °C -17.3 °C 35139.9 hPa Calm     77 % 0 mm 0.0 W/m2 CLR
18:54 -15.3 °C -17.3 °C 35139.9 hPa Calm     77 % 0 mm 0.0 W/m2 CLR
18:59 -15.6 °C -17.6 °C 35150.1 hPa Calm     78 % 0 mm 0.0 W/m2 CLR
19:04 -15.6 °C -17.6 °C 35150.1 hPa Calm     78 % 0 mm 0.0 W/m2 CLR
19:05 -15.6 °C -17.6 °C 35150.1 hPa Calm     78 % 0 mm 0.0 W/m2 CLR
19:10 -15.9 °C -17.7 °C 35150.1 hPa Calm     79 % 0 mm 0.0 W/m2 CLR
19:11 -15.9 °C -17.7 °C 35150.1 hPa Calm     79 % 0 mm 0.0 W/m2 CLR
19:12 -15.9 °C -17.7 °C 35150.1 hPa Calm     79 % 0 mm 0.0 W/m2 CLR
19:17 -16.2 °C -17.9 °C 35150.1 hPa Calm     80 % 0 mm 0.0 W/m2 CLR
19:22 -16.2 °C -17.9 °C 35150.1 hPa Calm     81 % 0 mm 0.0 W/m2 CLR
19:23 -16.2 °C -17.9 °C 35150.1 hPa Calm     81 % 0 mm 0.0 W/m2 CLR
19:27 -16.2 °C -17.9 °C 35150.1 hPa Calm     81 % 0 mm 0.0 W/m2 CLR
19:31 -16.6 °C -18.2 °C 35150.1 hPa Calm     81 % 0 mm 0.0 W/m2 CLR
19:33 -16.6 °C -18.2 °C 35163.6 hPa Calm     81 % 0 mm 0.0 W/m2 CLR
19:38 -16.6 °C -18.2 °C 35163.6 hPa Calm     81 % 0 mm 0.0 W/m2 CLR
19:39 -16.6 °C -18.2 °C 35163.6 hPa Calm     81 % 0 mm 0.0 W/m2 CLR
19:44 -16.8 °C -18.4 °C 35163.6 hPa Calm     82 % 0 mm 0.0 W/m2 CLR
19:49 -16.8 °C -18.3 °C 35163.6 hPa Calm     83 % 0 mm 0.0 W/m2 CLR
19:51 -16.8 °C -18.3 °C 35163.6 hPa Calm     83 % 0 mm 0.0 W/m2 CLR
19:56 -16.8 °C -18.3 °C 35163.6 hPa Calm     83 % 0 mm 0.0 W/m2 CLR
19:57 -16.8 °C -18.3 °C 35163.6 hPa Calm     83 % 0 mm 0.0 W/m2 CLR
20:02 -16.8 °C -18.2 °C 35163.6 hPa Calm     84 % 0 mm 0.0 W/m2 CLR
20:06 -16.8 °C -18.2 °C 35163.6 hPa Calm     84 % 0 mm 0.0 W/m2 CLR
20:08 -16.8 °C -18.2 °C 35163.6 hPa Calm     84 % 0 mm 0.0 W/m2 CLR
20:13 -16.8 °C -18.2 °C 35163.6 hPa Calm     84 % 0 mm 0.0 W/m2 CLR
20:14 -16.8 °C -18.2 °C 35163.6 hPa Calm     84 % 0 mm 0.0 W/m2 CLR
20:19 -16.8 °C -18.2 °C 35163.6 hPa Calm     84 % 0 mm 0.0 W/m2 CLR
20:20 -17.2 °C -18.5 °C 35163.6 hPa Calm     84 % 0 mm 0.0 W/m2 CLR
20:21 -17.2 °C -18.5 °C 35163.6 hPa Calm     84 % 0 mm 0.0 W/m2 CLR
20:26 -17.2 °C -18.5 °C 35163.6 hPa Calm     84 % 0 mm 0.0 W/m2 CLR
20:29 -16.8 °C -18.1 °C 35163.6 hPa Calm     85 % 0 mm 0.0 W/m2 CLR
20:34 -16.8 °C -18.1 °C 35163.6 hPa Calm     85 % 0 mm 0.0 W/m2 CLR
20:37 -16.8 °C -18.1 °C 35163.6 hPa Calm     85 % 0 mm 0.0 W/m2 CLR
20:39 -16.8 °C -18.1 °C 35163.6 hPa Calm     85 % 0 mm 0.0 W/m2 CLR
20:42 -16.8 °C -18.1 °C 35163.6 hPa Calm     85 % 0 mm 0.0 W/m2 CLR
20:45 -17.2 °C -18.4 °C 35173.8 hPa Calm     85 % 0 mm 0.0 W/m2 CLR
20:50 -17.2 °C -18.4 °C 35163.6 hPa Calm     85 % 0 mm 0.0 W/m2 CLR
20:52 -17.2 °C -18.3 °C 35163.6 hPa Calm     86 % 0 mm 0.0 W/m2 CLR
20:55 -17.4 °C -18.6 °C 35163.6 hPa Calm     86 % 0 mm 0.0 W/m2 CLR
20:59 -17.4 °C -18.6 °C 35163.6 hPa Calm     86 % 0 mm 0.0 W/m2 CLR
21:01 -17.4 °C -18.7 °C 35163.6 hPa Calm     85 % 0 mm 0.0 W/m2 CLR
21:06 -17.8 °C -19 °C 35163.6 hPa Calm     85 % 0 mm 0.0 W/m2 CLR
21:08 -17.4 °C -18.6 °C 35163.6 hPa Calm     86 % 0 mm 0.0 W/m2 CLR
21:13 -17.2 °C -18.3 °C 35163.6 hPa Calm     86 % 0 mm 0.0 W/m2 CLR
21:14 -17.2 °C -18.3 °C 35163.6 hPa Calm     86 % 0 mm 0.0 W/m2 CLR
21:15 -17.2 °C -18.3 °C 35163.6 hPa Calm     86 % 0 mm 0.0 W/m2 CLR
21:20 -17.2 °C -18.2 °C 35163.6 hPa Calm     87 % 0 mm 0.0 W/m2 CLR
21:25 -17.2 °C -18.2 °C 35163.6 hPa Calm     87 % 0 mm 0.0 W/m2 CLR
21:26 -17.2 °C -18.2 °C 35163.6 hPa Calm     87 % 0 mm 0.0 W/m2 CLR
21:31 -17.4 °C -18.5 °C 35163.6 hPa Calm     87 % 0 mm 0.0 W/m2 CLR
21:33 -17.4 °C -18.5 °C 35163.6 hPa Calm     87 % 0 mm 0.0 W/m2 CLR
21:38 -17.4 °C -18.5 °C 35163.6 hPa Calm     87 % 0 mm 0.0 W/m2 CLR
21:42 -17.8 °C -18.8 °C 35163.6 hPa Calm     87 % 0 mm 0.0 W/m2 CLR
21:44 -17.8 °C -18.8 °C 35163.6 hPa Calm     87 % 0 mm 0.0 W/m2 CLR
21:49 -17.8 °C -18.8 °C 35163.6 hPa Calm     87 % 0 mm 0.0 W/m2 CLR
21:50 -17.8 °C -18.8 °C 35163.6 hPa Calm     87 % 0 mm 0.0 W/m2 CLR
21:55 -17.8 °C -18.8 °C 35173.8 hPa Calm     87 % 0 mm 0.0 W/m2 CLR
21:56 -17.8 °C -18.8 °C 35173.8 hPa Calm     87 % 0 mm 0.0 W/m2 CLR
22:00 -17.8 °C -18.8 °C 35173.8 hPa Calm     88 % 0 mm 0.0 W/m2 CLR
22:02 -17.8 °C -18.8 °C 35173.8 hPa Calm     87 % 0 mm 0.0 W/m2 CLR
22:03 -17.8 °C -18.8 °C 35173.8 hPa Calm     88 % 0 mm 0.0 W/m2 CLR
22:07 -17.4 °C -18.5 °C 35173.8 hPa Calm     87 % 0 mm 0.0 W/m2 CLR
22:09 -17.4 °C -18.5 °C 35173.8 hPa Calm     87 % 0 mm 0.0 W/m2 CLR
22:13 -17.4 °C -18.5 °C 35163.6 hPa Calm     87 % 0 mm 0.0 W/m2 CLR
22:18 -17.8 °C -18.8 °C 35173.8 hPa Calm     87 % 0 mm 0.0 W/m2 CLR
22:20 -17.8 °C -18.8 °C 35173.8 hPa Calm     87 % 0 mm 0.0 W/m2 CLR
22:25 -17.8 °C -18.8 °C 35173.8 hPa Calm     88 % 0 mm 0.0 W/m2 CLR
22:26 -17.8 °C -18.8 °C 35173.8 hPa Calm     88 % 0 mm 0.0 W/m2 CLR
22:31 -17.8 °C -18.8 °C 35173.8 hPa Calm     87 % 0 mm 0.0 W/m2 CLR
22:37 -17.8 °C -18.8 °C 35173.8 hPa Calm     88 % 0 mm 0.0 W/m2 CLR
22:42 -17.8 °C -18.7 °C 35173.8 hPa Calm     89 % 0 mm 0.0 W/m2 CLR
22:47 -17.8 °C -18.8 °C 35163.6 hPa Calm     88 % 0 mm 0.0 W/m2 CLR
22:50 -17.8 °C -18.8 °C 35163.6 hPa Calm     88 % 0 mm 0.0 W/m2 CLR
22:53 -17.8 °C -18.8 °C 35163.6 hPa Calm     88 % 0 mm 0.0 W/m2 CLR
22:55 -17.8 °C -18.8 °C 35163.6 hPa Calm     88 % 0 mm 0.0 W/m2 CLR
23:00 -17.8 °C -18.8 °C 35173.8 hPa Calm     88 % 0 mm 0.0 W/m2 CLR
23:05 -17.8 °C -18.7 °C 35163.6 hPa Calm     89 % 0 mm 0.0 W/m2 CLR
23:11 -17.8 °C -18.7 °C 35173.8 hPa Calm     89 % 0 mm 0.0 W/m2 CLR
23:16 -17.8 °C -18.7 °C 35173.8 hPa Calm     89 % 0 mm 0.0 W/m2 CLR
23:18 -17.8 °C -18.7 °C 35173.8 hPa Calm     89 % 0 mm 0.0 W/m2 CLR
23:22 -17.8 °C -18.7 °C 35173.8 hPa Calm     89 % 0 mm 0.0 W/m2 CLR
23:27 -17.8 °C -18.8 °C 35173.8 hPa Calm     88 % 0 mm 0.0 W/m2 CLR
23:32 -17.8 °C -18.8 °C 35173.8 hPa Calm     88 % 0 mm 0.0 W/m2 CLR
23:33 -17.8 °C -18.7 °C 35173.8 hPa Calm     89 % 0 mm 0.0 W/m2 CLR
23:38 -17.8 °C -18.7 °C 35173.8 hPa Calm     89 % 0 mm 0.0 W/m2 CLR
23:40 -17.8 °C -18.7 °C 35173.8 hPa Calm     89 % 0 mm 0.0 W/m2 CLR
23:45 -17.8 °C -18.7 °C 35173.8 hPa Calm     89 % 0 mm 0.0 W/m2 CLR
23:47 -17.8 °C -18.7 °C 35173.8 hPa Calm     89 % 0 mm 0.0 W/m2 CLR
23:49 -17.8 °C -18.7 °C 35173.8 hPa Calm     89 % 0 mm 0.0 W/m2 CLR
23:54 -17.8 °C -18.8 °C 35173.8 hPa Calm     88 % 0 mm 0.0 W/m2 CLR
23:59 -18.1 °C -19 °C 35173.8 hPa Calm     89 % 0 mm 0.0 W/m2 CLR
Lo Temps de Massalio
Compliments of Weather Underground - 1.5 mb